sensor_id;sensor_type;location;lat;lon;timestamp;temperature;humidity
27797;DHT22;15177;50.844;4.412;2023-02-28T00:00:20;3.00;99.90
27797;DHT22;15177;50.844;4.412;2023-02-28T00:02:46;2.90;99.90
27797;DHT22;15177;50.844;4.412;2023-02-28T00:05:14;2.90;99.90
27797;DHT22;15177;50.844;4.412;2023-02-28T00:07:42;2.80;99.90
27797;DHT22;15177;50.844;4.412;2023-02-28T00:10:14;2.80;99.90
27797;DHT22;15177;50.844;4.412;2023-02-28T00:12:39;2.80;99.90
27797;DHT22;15177;50.844;4.412;2023-02-28T00:15:07;2.90;99.90
27797;DHT22;15177;50.844;4.412;2023-02-28T00:17:33;2.70;99.90
27797;DHT22;15177;50.844;4.412;2023-02-28T00:20:04;2.70;99.90
27797;DHT22;15177;50.844;4.412;2023-02-28T00:22:30;2.70;99.90
27797;DHT22;15177;50.844;4.412;2023-02-28T00:24:57;2.70;99.90
27797;DHT22;15177;50.844;4.412;2023-02-28T00:27:23;2.80;99.90
27797;DHT22;15177;50.844;4.412;2023-02-28T00:29:48;2.70;99.90
27797;DHT22;15177;50.844;4.412;2023-02-28T00:32:14;2.60;99.90
27797;DHT22;15177;50.844;4.412;2023-02-28T00:34:40;2.60;99.90
27797;DHT22;15177;50.844;4.412;2023-02-28T00:37:09;2.60;99.90
27797;DHT22;15177;50.844;4.412;2023-02-28T00:39:37;2.70;99.90
27797;DHT22;15177;50.844;4.412;2023-02-28T00:42:04;2.60;99.90
27797;DHT22;15177;50.844;4.412;2023-02-28T00:44:30;2.60;99.90
27797;DHT22;15177;50.844;4.412;2023-02-28T00:46:58;2.60;99.90
27797;DHT22;15177;50.844;4.412;2023-02-28T00:49:25;2.50;99.90
27797;DHT22;15177;50.844;4.412;2023-02-28T00:51:51;2.30;99.90
27797;DHT22;15177;50.844;4.412;2023-02-28T00:54:18;2.30;99.90
27797;DHT22;15177;50.844;4.412;2023-02-28T00:56:43;2.30;99.90
27797;DHT22;15177;50.844;4.412;2023-02-28T00:59:11;2.20;99.90
27797;DHT22;15177;50.844;4.412;2023-02-28T01:01:37;2.40;99.90
27797;DHT22;15177;50.844;4.412;2023-02-28T01:04:03;2.30;99.90
27797;DHT22;15177;50.844;4.412;2023-02-28T01:06:28;2.10;99.90
27797;DHT22;15177;50.844;4.412;2023-02-28T01:08:54;2.10;99.90
27797;DHT22;15177;50.844;4.412;2023-02-28T01:11:20;2.00;99.90
27797;DHT22;15177;50.844;4.412;2023-02-28T01:13:46;2.00;99.90
27797;DHT22;15177;50.844;4.412;2023-02-28T01:16:12;1.90;99.90
27797;DHT22;15177;50.844;4.412;2023-02-28T01:18:38;2.00;99.90
27797;DHT22;15177;50.844;4.412;2023-02-28T01:21:13;2.10;99.90
27797;DHT22;15177;50.844;4.412;2023-02-28T01:23:40;1.90;99.90
27797;DHT22;15177;50.844;4.412;2023-02-28T01:26:12;2.00;99.90
27797;DHT22;15177;50.844;4.412;2023-02-28T01:28:38;2.10;99.90
27797;DHT22;15177;50.844;4.412;2023-02-28T01:31:04;2.30;99.90
27797;DHT22;15177;50.844;4.412;2023-02-28T01:33:29;2.30;99.90
27797;DHT22;15177;50.844;4.412;2023-02-28T01:36:03;2.40;99.90
27797;DHT22;15177;50.844;4.412;2023-02-28T01:38:30;2.20;99.90
27797;DHT22;15177;50.844;4.412;2023-02-28T01:40:56;2.30;99.90
27797;DHT22;15177;50.844;4.412;2023-02-28T01:43:25;2.20;99.90
27797;DHT22;15177;50.844;4.412;2023-02-28T01:45:53;2.20;99.90
27797;DHT22;15177;50.844;4.412;2023-02-28T01:48:20;2.10;99.90
27797;DHT22;15177;50.844;4.412;2023-02-28T01:50:47;2.10;99.90
27797;DHT22;15177;50.844;4.412;2023-02-28T01:53:18;2.10;99.90
27797;DHT22;15177;50.844;4.412;2023-02-28T01:55:47;2.00;99.90
27797;DHT22;15177;50.844;4.412;2023-02-28T01:58:14;2.10;99.90
27797;DHT22;15177;50.844;4.412;2023-02-28T02:00:40;2.00;99.90
27797;DHT22;15177;50.844;4.412;2023-02-28T02:03:13;2.10;99.90
27797;DHT22;15177;50.844;4.412;2023-02-28T02:05:40;2.10;99.90
27797;DHT22;15177;50.844;4.412;2023-02-28T02:08:12;2.10;99.90
27797;DHT22;15177;50.844;4.412;2023-02-28T02:10:54;2.10;99.90
27797;DHT22;15177;50.844;4.412;2023-02-28T02:16:45;2.10;99.90
27797;DHT22;15177;50.844;4.412;2023-02-28T02:33:10;1.90;99.90
27797;DHT22;15177;50.844;4.412;2023-02-28T02:38:42;1.70;99.90
27797;DHT22;15177;50.844;4.412;2023-02-28T02:41:36;1.80;99.90
27797;DHT22;15177;50.844;4.412;2023-02-28T02:44:25;1.70;99.90
27797;DHT22;15177;50.844;4.412;2023-02-28T02:46:59;1.70;99.90
27797;DHT22;15177;50.844;4.412;2023-02-28T02:49:31;1.60;99.90
27797;DHT22;15177;50.844;4.412;2023-02-28T02:52:04;1.50;99.90
27797;DHT22;15177;50.844;4.412;2023-02-28T02:54:41;1.60;99.90
27797;DHT22;15177;50.844;4.412;2023-02-28T02:57:17;1.70;99.90
27797;DHT22;15177;50.844;4.412;2023-02-28T02:59:45;1.70;99.90
27797;DHT22;15177;50.844;4.412;2023-02-28T03:02:13;1.60;99.90
27797;DHT22;15177;50.844;4.412;2023-02-28T03:04:43;1.50;99.90
27797;DHT22;15177;50.844;4.412;2023-02-28T03:07:11;1.50;99.90
27797;DHT22;15177;50.844;4.412;2023-02-28T03:09:37;1.30;99.90
27797;DHT22;15177;50.844;4.412;2023-02-28T03:12:03;1.30;99.90
27797;DHT22;15177;50.844;4.412;2023-02-28T03:14:47;1.30;99.90
27797;DHT22;15177;50.844;4.412;2023-02-28T03:17:21;1.50;99.90
27797;DHT22;15177;50.844;4.412;2023-02-28T03:23:21;1.50;99.90
27797;DHT22;15177;50.844;4.412;2023-02-28T03:31:38;1.40;99.90
27797;DHT22;15177;50.844;4.412;2023-02-28T03:34:15;1.30;99.90
27797;DHT22;15177;50.844;4.412;2023-02-28T03:36:51;1.20;99.90
27797;DHT22;15177;50.844;4.412;2023-02-28T03:39:36;1.10;99.90
27797;DHT22;15177;50.844;4.412;2023-02-28T03:42:13;1.10;99.90
27797;DHT22;15177;50.844;4.412;2023-02-28T03:44:44;1.20;99.90
27797;DHT22;15177;50.844;4.412;2023-02-28T03:47:14;1.20;99.90
27797;DHT22;15177;50.844;4.412;2023-02-28T03:49:53;1.20;99.90
27797;DHT22;15177;50.844;4.412;2023-02-28T03:52:22;1.20;99.90
27797;DHT22;15177;50.844;4.412;2023-02-28T03:54:53;1.20;99.90
27797;DHT22;15177;50.844;4.412;2023-02-28T03:57:36;1.20;99.90
27797;DHT22;15177;50.844;4.412;2023-02-28T04:00:17;1.10;99.90
27797;DHT22;15177;50.844;4.412;2023-02-28T04:02:44;0.80;99.90
27797;DHT22;15177;50.844;4.412;2023-02-28T04:05:12;0.80;99.90
27797;DHT22;15177;50.844;4.412;2023-02-28T04:07:37;0.90;99.90
27797;DHT22;15177;50.844;4.412;2023-02-28T04:10:04;1.00;99.90
27797;DHT22;15177;50.844;4.412;2023-02-28T04:12:30;1.00;99.90
27797;DHT22;15177;50.844;4.412;2023-02-28T04:14:55;0.90;99.90
27797;DHT22;15177;50.844;4.412;2023-02-28T04:17:21;0.90;99.90
27797;DHT22;15177;50.844;4.412;2023-02-28T04:19:47;1.00;99.90
27797;DHT22;15177;50.844;4.412;2023-02-28T04:22:13;1.10;99.90
27797;DHT22;15177;50.844;4.412;2023-02-28T04:24:40;1.20;99.90
27797;DHT22;15177;50.844;4.412;2023-02-28T04:27:08;1.20;99.90
27797;DHT22;15177;50.844;4.412;2023-02-28T04:29:34;1.20;99.90
27797;DHT22;15177;50.844;4.412;2023-02-28T04:32:00;1.10;99.90
27797;DHT22;15177;50.844;4.412;2023-02-28T04:34:27;1.00;99.90
27797;DHT22;15177;50.844;4.412;2023-02-28T04:36:54;1.10;99.90
27797;DHT22;15177;50.844;4.412;2023-02-28T04:39:22;1.20;99.90
27797;DHT22;15177;50.844;4.412;2023-02-28T04:41:48;1.30;99.90
27797;DHT22;15177;50.844;4.412;2023-02-28T04:44:14;1.20;99.90
27797;DHT22;15177;50.844;4.412;2023-02-28T04:46:40;1.10;99.90
27797;DHT22;15177;50.844;4.412;2023-02-28T04:49:06;1.10;99.90
27797;DHT22;15177;50.844;4.412;2023-02-28T04:51:32;1.10;99.90
27797;DHT22;15177;50.844;4.412;2023-02-28T04:53:58;1.10;99.90
27797;DHT22;15177;50.844;4.412;2023-02-28T04:56:23;1.10;99.90
27797;DHT22;15177;50.844;4.412;2023-02-28T04:58:49;1.10;99.90
27797;DHT22;15177;50.844;4.412;2023-02-28T05:01:19;1.10;99.90
27797;DHT22;15177;50.844;4.412;2023-02-28T05:03:45;1.10;99.90
27797;DHT22;15177;50.844;4.412;2023-02-28T05:06:12;1.10;99.90
27797;DHT22;15177;50.844;4.412;2023-02-28T05:08:38;1.00;99.90
27797;DHT22;15177;50.844;4.412;2023-02-28T05:11:07;1.00;99.90
27797;DHT22;15177;50.844;4.412;2023-02-28T05:13:33;1.00;99.90
27797;DHT22;15177;50.844;4.412;2023-02-28T05:16:01;1.20;99.90
27797;DHT22;15177;50.844;4.412;2023-02-28T05:18:26;1.30;99.90
27797;DHT22;15177;50.844;4.412;2023-02-28T05:20:52;1.40;99.90
27797;DHT22;15177;50.844;4.412;2023-02-28T05:23:19;1.40;99.90
27797;DHT22;15177;50.844;4.412;2023-02-28T05:25:46;1.40;99.90
27797;DHT22;15177;50.844;4.412;2023-02-28T05:28:12;1.50;99.90
27797;DHT22;15177;50.844;4.412;2023-02-28T05:30:38;1.60;99.90
27797;DHT22;15177;50.844;4.412;2023-02-28T05:33:03;1.70;99.90
27797;DHT22;15177;50.844;4.412;2023-02-28T05:35:29;1.70;99.90
27797;DHT22;15177;50.844;4.412;2023-02-28T05:37:56;1.70;99.90
27797;DHT22;15177;50.844;4.412;2023-02-28T05:40:22;1.60;99.90
27797;DHT22;15177;50.844;4.412;2023-02-28T05:42:48;1.50;99.90
27797;DHT22;15177;50.844;4.412;2023-02-28T05:45:15;1.60;99.90
27797;DHT22;15177;50.844;4.412;2023-02-28T05:47:40;1.70;99.90
27797;DHT22;15177;50.844;4.412;2023-02-28T05:50:06;1.80;99.90
27797;DHT22;15177;50.844;4.412;2023-02-28T05:52:33;1.80;99.90
27797;DHT22;15177;50.844;4.412;2023-02-28T05:54:59;1.80;99.90
27797;DHT22;15177;50.844;4.412;2023-02-28T05:57:25;1.70;99.90
27797;DHT22;15177;50.844;4.412;2023-02-28T05:59:51;1.60;99.90
27797;DHT22;15177;50.844;4.412;2023-02-28T06:02:18;1.60;99.90
27797;DHT22;15177;50.844;4.412;2023-02-28T06:04:44;1.60;99.90
27797;DHT22;15177;50.844;4.412;2023-02-28T06:07:10;1.40;99.90
27797;DHT22;15177;50.844;4.412;2023-02-28T06:09:37;1.40;99.90
27797;DHT22;15177;50.844;4.412;2023-02-28T06:12:04;1.40;99.90
27797;DHT22;15177;50.844;4.412;2023-02-28T06:14:35;1.40;99.90
27797;DHT22;15177;50.844;4.412;2023-02-28T06:17:01;1.40;99.90
27797;DHT22;15177;50.844;4.412;2023-02-28T06:19:27;1.60;99.90
27797;DHT22;15177;50.844;4.412;2023-02-28T06:21:55;1.70;99.90
27797;DHT22;15177;50.844;4.412;2023-02-28T06:24:23;1.60;99.90
27797;DHT22;15177;50.844;4.412;2023-02-28T06:26:49;1.60;99.90
27797;DHT22;15177;50.844;4.412;2023-02-28T06:29:15;1.70;99.90
27797;DHT22;15177;50.844;4.412;2023-02-28T06:31:45;1.80;99.90
27797;DHT22;15177;50.844;4.412;2023-02-28T06:34:12;1.90;99.90
27797;DHT22;15177;50.844;4.412;2023-02-28T06:36:38;2.00;99.90
27797;DHT22;15177;50.844;4.412;2023-02-28T06:39:06;2.10;99.90
27797;DHT22;15177;50.844;4.412;2023-02-28T06:41:32;2.10;99.90
27797;DHT22;15177;50.844;4.412;2023-02-28T06:44:10;2.20;99.90
27797;DHT22;15177;50.844;4.412;2023-02-28T06:46:38;2.30;99.90
27797;DHT22;15177;50.844;4.412;2023-02-28T06:49:03;2.40;99.90
27797;DHT22;15177;50.844;4.412;2023-02-28T06:51:30;2.30;99.90
27797;DHT22;15177;50.844;4.412;2023-02-28T06:53:55;2.50;99.90
27797;DHT22;15177;50.844;4.412;2023-02-28T06:56:22;2.50;99.90
27797;DHT22;15177;50.844;4.412;2023-02-28T06:58:50;2.50;99.90
27797;DHT22;15177;50.844;4.412;2023-02-28T07:01:18;2.40;99.90
27797;DHT22;15177;50.844;4.412;2023-02-28T07:03:46;2.50;99.90
27797;DHT22;15177;50.844;4.412;2023-02-28T07:06:12;2.50;99.90
27797;DHT22;15177;50.844;4.412;2023-02-28T07:08:37;2.70;99.90
27797;DHT22;15177;50.844;4.412;2023-02-28T07:11:07;2.70;99.90
27797;DHT22;15177;50.844;4.412;2023-02-28T07:13:34;2.80;99.90
27797;DHT22;15177;50.844;4.412;2023-02-28T07:16:05;2.90;99.90
27797;DHT22;15177;50.844;4.412;2023-02-28T07:18:34;3.00;99.90
27797;DHT22;15177;50.844;4.412;2023-02-28T07:21:06;3.00;99.90
27797;DHT22;15177;50.844;4.412;2023-02-28T07:23:33;3.10;99.90
27797;DHT22;15177;50.844;4.412;2023-02-28T07:25:58;3.20;99.90
27797;DHT22;15177;50.844;4.412;2023-02-28T07:28:25;3.50;99.90
27797;DHT22;15177;50.844;4.412;2023-02-28T07:30:55;3.70;99.90
27797;DHT22;15177;50.844;4.412;2023-02-28T07:33:20;4.20;99.90
27797;DHT22;15177;50.844;4.412;2023-02-28T07:35:46;5.20;99.90
27797;DHT22;15177;50.844;4.412;2023-02-28T07:38:12;6.30;99.90
27797;DHT22;15177;50.844;4.412;2023-02-28T07:40:41;7.30;99.90
27797;DHT22;15177;50.844;4.412;2023-02-28T07:43:07;7.90;99.90
27797;DHT22;15177;50.844;4.412;2023-02-28T07:45:34;8.70;99.90
27797;DHT22;15177;50.844;4.412;2023-02-28T07:48:02;9.40;99.90
27797;DHT22;15177;50.844;4.412;2023-02-28T07:50:28;10.10;99.90
27797;DHT22;15177;50.844;4.412;2023-02-28T07:52:58;10.70;97.80
27797;DHT22;15177;50.844;4.412;2023-02-28T07:55:34;11.20;94.70
27797;DHT22;15177;50.844;4.412;2023-02-28T07:58:01;12.00;92.20
27797;DHT22;15177;50.844;4.412;2023-02-28T08:00:27;11.80;90.60
27797;DHT22;15177;50.844;4.412;2023-02-28T08:02:55;12.30;89.50
27797;DHT22;15177;50.844;4.412;2023-02-28T08:05:22;12.90;83.00
27797;DHT22;15177;50.844;4.412;2023-02-28T08:07:49;13.00;79.70
27797;DHT22;15177;50.844;4.412;2023-02-28T08:10:16;12.80;76.60
27797;DHT22;15177;50.844;4.412;2023-02-28T08:12:43;12.60;78.10
27797;DHT22;15177;50.844;4.412;2023-02-28T08:15:09;13.10;76.50
27797;DHT22;15177;50.844;4.412;2023-02-28T08:17:36;13.30;73.90
27797;DHT22;15177;50.844;4.412;2023-02-28T08:20:03;12.90;72.60
27797;DHT22;15177;50.844;4.412;2023-02-28T08:22:31;12.10;75.60
27797;DHT22;15177;50.844;4.412;2023-02-28T08:25:00;12.20;76.30
27797;DHT22;15177;50.844;4.412;2023-02-28T08:27:26;12.00;75.80
27797;DHT22;15177;50.844;4.412;2023-02-28T08:29:52;11.90;78.80
27797;DHT22;15177;50.844;4.412;2023-02-28T08:32:17;11.60;74.80
27797;DHT22;15177;50.844;4.412;2023-02-28T08:34:45;10.80;80.00
27797;DHT22;15177;50.844;4.412;2023-02-28T08:37:13;10.50;80.90
27797;DHT22;15177;50.844;4.412;2023-02-28T08:39:40;11.10;78.80
27797;DHT22;15177;50.844;4.412;2023-02-28T08:42:07;11.30;79.30
27797;DHT22;15177;50.844;4.412;2023-02-28T08:44:32;11.30;78.40
27797;DHT22;15177;50.844;4.412;2023-02-28T08:46:59;11.00;76.50
27797;DHT22;15177;50.844;4.412;2023-02-28T08:49:26;10.70;79.60
27797;DHT22;15177;50.844;4.412;2023-02-28T08:51:57;10.80;77.10
27797;DHT22;15177;50.844;4.412;2023-02-28T08:54:24;11.10;77.40
27797;DHT22;15177;50.844;4.412;2023-02-28T08:56:51;10.90;77.40
27797;DHT22;15177;50.844;4.412;2023-02-28T08:59:18;11.10;76.60
27797;DHT22;15177;50.844;4.412;2023-02-28T09:01:43;10.90;77.70
27797;DHT22;15177;50.844;4.412;2023-02-28T09:04:12;11.20;75.30
27797;DHT22;15177;50.844;4.412;2023-02-28T09:06:38;10.90;76.40
27797;DHT22;15177;50.844;4.412;2023-02-28T09:09:05;10.50;77.00
27797;DHT22;15177;50.844;4.412;2023-02-28T09:11:34;10.30;77.20
27797;DHT22;15177;50.844;4.412;2023-02-28T09:14:02;10.10;74.80
27797;DHT22;15177;50.844;4.412;2023-02-28T09:16:29;10.00;77.60
27797;DHT22;15177;50.844;4.412;2023-02-28T09:18:56;10.20;77.30
27797;DHT22;15177;50.844;4.412;2023-02-28T09:21:21;10.90;73.60
27797;DHT22;15177;50.844;4.412;2023-02-28T09:23:48;10.90;73.70
27797;DHT22;15177;50.844;4.412;2023-02-28T09:26:18;11.30;72.00
27797;DHT22;15177;50.844;4.412;2023-02-28T09:28:44;10.90;70.30
27797;DHT22;15177;50.844;4.412;2023-02-28T09:31:24;11.40;69.50
27797;DHT22;15177;50.844;4.412;2023-02-28T09:33:59;10.90;67.60
27797;DHT22;15177;50.844;4.412;2023-02-28T09:36:28;10.60;69.60
27797;DHT22;15177;50.844;4.412;2023-02-28T09:39:01;10.40;69.30
27797;DHT22;15177;50.844;4.412;2023-02-28T09:41:41;10.50;70.80
27797;DHT22;15177;50.844;4.412;2023-02-28T09:44:37;11.40;70.30
27797;DHT22;15177;50.844;4.412;2023-02-28T09:47:27;11.50;66.00
27797;DHT22;15177;50.844;4.412;2023-02-28T09:49:58;11.60;67.40
27797;DHT22;15177;50.844;4.412;2023-02-28T09:52:29;11.90;63.50
27797;DHT22;15177;50.844;4.412;2023-02-28T09:55:20;11.60;61.20
27797;DHT22;15177;50.844;4.412;2023-02-28T09:57:48;11.30;62.40
27797;DHT22;15177;50.844;4.412;2023-02-28T10:00:39;10.60;63.80
27797;DHT22;15177;50.844;4.412;2023-02-28T10:05:39;10.10;67.60
27797;DHT22;15177;50.844;4.412;2023-02-28T10:08:18;10.90;65.70
27797;DHT22;15177;50.844;4.412;2023-02-28T10:10:52;11.10;61.80
27797;DHT22;15177;50.844;4.412;2023-02-28T10:13:32;11.10;62.80
27797;DHT22;15177;50.844;4.412;2023-02-28T10:16:06;11.40;62.60
27797;DHT22;15177;50.844;4.412;2023-02-28T10:18:56;12.10;61.70
27797;DHT22;15177;50.844;4.412;2023-02-28T10:21:27;12.20;59.90
27797;DHT22;15177;50.844;4.412;2023-02-28T10:24:05;12.00;60.60
27797;DHT22;15177;50.844;4.412;2023-02-28T10:26:38;12.10;59.30
27797;DHT22;15177;50.844;4.412;2023-02-28T10:29:04;12.10;59.50
27797;DHT22;15177;50.844;4.412;2023-02-28T10:31:30;12.40;57.80
27797;DHT22;15177;50.844;4.412;2023-02-28T10:33:57;12.30;56.10
27797;DHT22;15177;50.844;4.412;2023-02-28T10:36:24;11.80;55.80
27797;DHT22;15177;50.844;4.412;2023-02-28T10:38:56;11.10;56.50
27797;DHT22;15177;50.844;4.412;2023-02-28T10:41:30;10.40;57.10
27797;DHT22;15177;50.844;4.412;2023-02-28T10:44:22;10.10;58.60
27797;DHT22;15177;50.844;4.412;2023-02-28T10:46:49;9.70;58.90
27797;DHT22;15177;50.844;4.412;2023-02-28T10:49:29;9.70;61.00
27797;DHT22;15177;50.844;4.412;2023-02-28T10:51:58;9.80;60.00
27797;DHT22;15177;50.844;4.412;2023-02-28T10:54:31;9.80;59.80
27797;DHT22;15177;50.844;4.412;2023-02-28T10:57:17;9.50;59.90
27797;DHT22;15177;50.844;4.412;2023-02-28T10:59:43;9.90;59.40
27797;DHT22;15177;50.844;4.412;2023-02-28T11:02:35;9.20;59.30
27797;DHT22;15177;50.844;4.412;2023-02-28T11:08:16;8.00;62.30
27797;DHT22;15177;50.844;4.412;2023-02-28T11:10:55;7.50;64.10
27797;DHT22;15177;50.844;4.412;2023-02-28T11:13:34;6.70;68.00
27797;DHT22;15177;50.844;4.412;2023-02-28T11:16:03;6.40;71.00
27797;DHT22;15177;50.844;4.412;2023-02-28T11:18:51;6.00;73.00
27797;DHT22;15177;50.844;4.412;2023-02-28T11:21:34;6.00;73.20
27797;DHT22;15177;50.844;4.412;2023-02-28T11:24:41;6.00;73.00
27797;DHT22;15177;50.844;4.412;2023-02-28T11:29:59;5.40;75.70
27797;DHT22;15177;50.844;4.412;2023-02-28T11:32:27;5.40;76.00
27797;DHT22;15177;50.844;4.412;2023-02-28T11:37:35;5.50;77.70
27797;DHT22;15177;50.844;4.412;2023-02-28T11:40:04;5.40;76.00
27797;DHT22;15177;50.844;4.412;2023-02-28T11:45:49;5.30;80.10
27797;DHT22;15177;50.844;4.412;2023-02-28T11:48:28;5.30;79.60
27797;DHT22;15177;50.844;4.412;2023-02-28T11:51:03;5.50;80.30
27797;DHT22;15177;50.844;4.412;2023-02-28T11:54:13;5.50;80.80
27797;DHT22;15177;50.844;4.412;2023-02-28T11:56:53;5.70;79.50
27797;DHT22;15177;50.844;4.412;2023-02-28T12:02:05;5.70;79.50
27797;DHT22;15177;50.844;4.412;2023-02-28T12:10:36;5.10;82.10
27797;DHT22;15177;50.844;4.412;2023-02-28T12:19:02;5.50;76.80
27797;DHT22;15177;50.844;4.412;2023-02-28T12:26:53;5.50;73.60
27797;DHT22;15177;50.844;4.412;2023-02-28T12:29:23;5.40;75.40
27797;DHT22;15177;50.844;4.412;2023-02-28T12:31:59;5.50;75.90
27797;DHT22;15177;50.844;4.412;2023-02-28T12:37:43;5.60;74.00
27797;DHT22;15177;50.844;4.412;2023-02-28T12:40:23;5.80;74.10
27797;DHT22;15177;50.844;4.412;2023-02-28T12:42:59;5.70;73.80
27797;DHT22;15177;50.844;4.412;2023-02-28T12:45:59;5.70;74.40
27797;DHT22;15177;50.844;4.412;2023-02-28T12:48:41;5.90;73.20
27797;DHT22;15177;50.844;4.412;2023-02-28T12:51:30;6.00;71.50
27797;DHT22;15177;50.844;4.412;2023-02-28T13:00:02;5.70;72.40
27797;DHT22;15177;50.844;4.412;2023-02-28T13:10:55;5.90;71.80
27797;DHT22;15177;50.844;4.412;2023-02-28T13:13:29;5.90;71.70
27797;DHT22;15177;50.844;4.412;2023-02-28T13:19:18;6.10;73.30
27797;DHT22;15177;50.844;4.412;2023-02-28T13:21:49;6.10;72.50
27797;DHT22;15177;50.844;4.412;2023-02-28T13:29:43;6.00;71.40
27797;DHT22;15177;50.844;4.412;2023-02-28T13:42:50;6.10;70.50
27797;DHT22;15177;50.844;4.412;2023-02-28T13:45:34;6.10;69.30
27797;DHT22;15177;50.844;4.412;2023-02-28T13:48:24;5.90;70.00
27797;DHT22;15177;50.844;4.412;2023-02-28T13:50:55;5.80;70.50
27797;DHT22;15177;50.844;4.412;2023-02-28T13:53:50;5.90;71.10
27797;DHT22;15177;50.844;4.412;2023-02-28T13:56:40;6.10;69.50
27797;DHT22;15177;50.844;4.412;2023-02-28T14:05:17;6.00;69.60
27797;DHT22;15177;50.844;4.412;2023-02-28T14:07:50;5.90;69.40
27797;DHT22;15177;50.844;4.412;2023-02-28T14:13:38;5.90;70.30
27797;DHT22;15177;50.844;4.412;2023-02-28T14:16:14;5.90;71.00
27797;DHT22;15177;50.844;4.412;2023-02-28T14:19:19;5.80;71.00
27797;DHT22;15177;50.844;4.412;2023-02-28T14:22:17;5.80;72.00
27797;DHT22;15177;50.844;4.412;2023-02-28T14:28:03;5.70;72.60
27797;DHT22;15177;50.844;4.412;2023-02-28T14:33:42;5.50;72.40
27797;DHT22;15177;50.844;4.412;2023-02-28T14:36:40;5.50;73.20
27797;DHT22;15177;50.844;4.412;2023-02-28T14:41:39;5.70;73.10
27797;DHT22;15177;50.844;4.412;2023-02-28T14:44:18;5.80;72.50
27797;DHT22;15177;50.844;4.412;2023-02-28T14:46:47;5.80;72.20
27797;DHT22;15177;50.844;4.412;2023-02-28T14:49:21;5.80;72.80
27797;DHT22;15177;50.844;4.412;2023-02-28T14:51:49;5.70;73.60
27797;DHT22;15177;50.844;4.412;2023-02-28T14:54:18;5.80;73.90
27797;DHT22;15177;50.844;4.412;2023-02-28T14:56:50;5.70;74.00
27797;DHT22;15177;50.844;4.412;2023-02-28T14:59:31;5.80;73.70
27797;DHT22;15177;50.844;4.412;2023-02-28T15:02:24;5.90;72.90
27797;DHT22;15177;50.844;4.412;2023-02-28T15:07:42;5.90;75.20
27797;DHT22;15177;50.844;4.412;2023-02-28T15:10:24;5.90;74.70
27797;DHT22;15177;50.844;4.412;2023-02-28T15:15:23;5.80;75.10
27797;DHT22;15177;50.844;4.412;2023-02-28T15:17:53;5.90;75.20
27797;DHT22;15177;50.844;4.412;2023-02-28T15:20:23;5.90;75.70
27797;DHT22;15177;50.844;4.412;2023-02-28T15:22:54;5.90;75.50
27797;DHT22;15177;50.844;4.412;2023-02-28T15:25:22;6.00;75.60
27797;DHT22;15177;50.844;4.412;2023-02-28T15:27:53;6.00;75.20
27797;DHT22;15177;50.844;4.412;2023-02-28T15:30:29;6.00;75.30
27797;DHT22;15177;50.844;4.412;2023-02-28T15:35:42;5.90;77.40
27797;DHT22;15177;50.844;4.412;2023-02-28T15:40:49;5.70;78.30
27797;DHT22;15177;50.844;4.412;2023-02-28T15:43:39;5.60;78.60
27797;DHT22;15177;50.844;4.412;2023-02-28T15:46:09;5.70;78.60
27797;DHT22;15177;50.844;4.412;2023-02-28T15:48:42;5.80;78.40
27797;DHT22;15177;50.844;4.412;2023-02-28T15:51:16;5.70;78.00
27797;DHT22;15177;50.844;4.412;2023-02-28T15:53:56;5.70;78.50
27797;DHT22;15177;50.844;4.412;2023-02-28T15:56:28;5.70;78.80
27797;DHT22;15177;50.844;4.412;2023-02-28T15:59:00;5.90;78.50
27797;DHT22;15177;50.844;4.412;2023-02-28T16:01:31;5.80;78.40
27797;DHT22;15177;50.844;4.412;2023-02-28T16:04:06;5.80;78.80
27797;DHT22;15177;50.844;4.412;2023-02-28T16:06:35;5.60;79.00
27797;DHT22;15177;50.844;4.412;2023-02-28T16:09:01;5.70;79.40
27797;DHT22;15177;50.844;4.412;2023-02-28T16:11:27;5.80;79.40
27797;DHT22;15177;50.844;4.412;2023-02-28T16:13:53;5.80;78.80
27797;DHT22;15177;50.844;4.412;2023-02-28T16:16:21;5.80;79.40
27797;DHT22;15177;50.844;4.412;2023-02-28T16:18:48;5.80;79.00
27797;DHT22;15177;50.844;4.412;2023-02-28T16:21:14;5.60;80.20
27797;DHT22;15177;50.844;4.412;2023-02-28T16:23:40;5.50;82.10
27797;DHT22;15177;50.844;4.412;2023-02-28T16:26:08;5.50;82.70
27797;DHT22;15177;50.844;4.412;2023-02-28T16:28:36;5.50;82.50
27797;DHT22;15177;50.844;4.412;2023-02-28T16:31:06;5.40;83.50
27797;DHT22;15177;50.844;4.412;2023-02-28T16:33:33;5.50;84.00
27797;DHT22;15177;50.844;4.412;2023-02-28T16:35:59;5.60;83.90
27797;DHT22;15177;50.844;4.412;2023-02-28T16:38:25;5.50;83.10
27797;DHT22;15177;50.844;4.412;2023-02-28T16:40:52;5.50;83.70
27797;DHT22;15177;50.844;4.412;2023-02-28T16:43:22;5.30;85.00
27797;DHT22;15177;50.844;4.412;2023-02-28T16:45:48;5.20;85.30
27797;DHT22;15177;50.844;4.412;2023-02-28T16:48:15;5.30;85.20
27797;DHT22;15177;50.844;4.412;2023-02-28T16:50:42;5.30;85.70
27797;DHT22;15177;50.844;4.412;2023-02-28T16:53:09;5.30;85.40
27797;DHT22;15177;50.844;4.412;2023-02-28T16:55:35;5.40;85.50
27797;DHT22;15177;50.844;4.412;2023-02-28T16:58:02;5.30;86.00
27797;DHT22;15177;50.844;4.412;2023-02-28T17:00:30;5.30;86.90
27797;DHT22;15177;50.844;4.412;2023-02-28T17:02:57;5.20;87.80
27797;DHT22;15177;50.844;4.412;2023-02-28T17:05:24;5.20;88.40
27797;DHT22;15177;50.844;4.412;2023-02-28T17:07:50;5.10;88.50
27797;DHT22;15177;50.844;4.412;2023-02-28T17:10:18;5.10;89.30
27797;DHT22;15177;50.844;4.412;2023-02-28T17:12:44;5.00;89.50
27797;DHT22;15177;50.844;4.412;2023-02-28T17:15:14;5.00;90.10
27797;DHT22;15177;50.844;4.412;2023-02-28T17:17:41;5.00;90.00
27797;DHT22;15177;50.844;4.412;2023-02-28T17:20:28;5.00;90.20
27797;DHT22;15177;50.844;4.412;2023-02-28T17:22:54;5.00;90.10
27797;DHT22;15177;50.844;4.412;2023-02-28T17:25:20;5.00;90.50
27797;DHT22;15177;50.844;4.412;2023-02-28T17:27:46;5.00;90.30
27797;DHT22;15177;50.844;4.412;2023-02-28T17:30:21;5.10;90.10
27797;DHT22;15177;50.844;4.412;2023-02-28T17:32:47;5.10;90.30
27797;DHT22;15177;50.844;4.412;2023-02-28T17:35:13;5.00;90.50
27797;DHT22;15177;50.844;4.412;2023-02-28T17:37:39;4.90;91.10
27797;DHT22;15177;50.844;4.412;2023-02-28T17:40:06;5.00;91.00
27797;DHT22;15177;50.844;4.412;2023-02-28T17:42:33;4.90;91.10
27797;DHT22;15177;50.844;4.412;2023-02-28T17:44:59;4.90;91.30
27797;DHT22;15177;50.844;4.412;2023-02-28T17:47:24;5.00;91.10
27797;DHT22;15177;50.844;4.412;2023-02-28T17:49:51;4.90;91.40
27797;DHT22;15177;50.844;4.412;2023-02-28T17:52:17;4.90;91.60
27797;DHT22;15177;50.844;4.412;2023-02-28T17:54:42;4.90;91.60
27797;DHT22;15177;50.844;4.412;2023-02-28T17:57:13;4.80;91.90
27797;DHT22;15177;50.844;4.412;2023-02-28T17:59:40;4.90;91.60
27797;DHT22;15177;50.844;4.412;2023-02-28T18:02:06;4.90;91.80
27797;DHT22;15177;50.844;4.412;2023-02-28T18:04:32;4.80;92.20
27797;DHT22;15177;50.844;4.412;2023-02-28T18:06:57;4.90;92.30
27797;DHT22;15177;50.844;4.412;2023-02-28T18:09:26;4.90;92.10
27797;DHT22;15177;50.844;4.412;2023-02-28T18:11:53;4.80;92.60